Terminal Aerodrome Forecast
Issued by NWS Jackson, MS

Home | Current Version | Previous Version | Text Only | Print | Product List | Glossary On
Versions: 1 2 3 4 5 6 7 8 9 10 11 12
000
FTUS44 KJAN 261126
TAFMEI
TAF
KMEI 261126Z 2612/2712 00000KT P6SM SKC
     FM261330 24004KT P6SM SCT015
     FM261430 28009KT P6SM FEW025
     FM270000 34004KT P6SM SCT200=

USA.gov is the U.S. government's official web portal to all federal, state and local government web resources and services.